sensor_id;sensor_type;location;lat;lon;timestamp;temperature;humidity
20973;DHT22;10645;52.370;13.314;2022-10-26T00:00:04;5.80;99.90
20973;DHT22;10645;52.370;13.314;2022-10-26T00:02:37;5.80;99.90
20973;DHT22;10645;52.370;13.314;2022-10-26T00:05:04;5.80;99.90
20973;DHT22;10645;52.370;13.314;2022-10-26T00:07:30;5.70;99.90
20973;DHT22;10645;52.370;13.314;2022-10-26T00:09:56;5.70;99.90
20973;DHT22;10645;52.370;13.314;2022-10-26T00:12:23;5.70;99.90
20973;DHT22;10645;52.370;13.314;2022-10-26T00:14:49;5.70;99.90
20973;DHT22;10645;52.370;13.314;2022-10-26T00:17:15;5.70;99.90
20973;DHT22;10645;52.370;13.314;2022-10-26T00:19:41;5.70;99.90
20973;DHT22;10645;52.370;13.314;2022-10-26T00:22:07;5.70;99.90
20973;DHT22;10645;52.370;13.314;2022-10-26T00:24:33;5.70;99.90
20973;DHT22;10645;52.370;13.314;2022-10-26T00:26:59;5.60;99.90
20973;DHT22;10645;52.370;13.314;2022-10-26T00:29:25;5.60;99.90
20973;DHT22;10645;52.370;13.314;2022-10-26T00:31:52;5.60;99.90
20973;DHT22;10645;52.370;13.314;2022-10-26T00:34:18;5.50;99.90
20973;DHT22;10645;52.370;13.314;2022-10-26T00:36:44;5.50;99.90
20973;DHT22;10645;52.370;13.314;2022-10-26T00:39:11;5.50;99.90
20973;DHT22;10645;52.370;13.314;2022-10-26T00:41:38;5.50;99.90
20973;DHT22;10645;52.370;13.314;2022-10-26T00:47:15;5.40;99.90
20973;DHT22;10645;52.370;13.314;2022-10-26T00:49:44;5.40;99.90
20973;DHT22;10645;52.370;13.314;2022-10-26T00:52:13;5.30;99.90
20973;DHT22;10645;52.370;13.314;2022-10-26T00:54:40;5.40;99.90
20973;DHT22;10645;52.370;13.314;2022-10-26T00:57:06;5.30;99.90
20973;DHT22;10645;52.370;13.314;2022-10-26T00:59:32;5.30;99.90
20973;DHT22;10645;52.370;13.314;2022-10-26T01:01:59;5.30;99.90
20973;DHT22;10645;52.370;13.314;2022-10-26T01:04:25;5.30;99.90
20973;DHT22;10645;52.370;13.314;2022-10-26T01:06:52;5.30;99.90
20973;DHT22;10645;52.370;13.314;2022-10-26T01:09:18;5.20;99.90
20973;DHT22;10645;52.370;13.314;2022-10-26T01:11:45;5.20;99.90
20973;DHT22;10645;52.370;13.314;2022-10-26T01:14:13;5.30;99.90
20973;DHT22;10645;52.370;13.314;2022-10-26T01:17:02;5.30;99.90
20973;DHT22;10645;52.370;13.314;2022-10-26T01:22:35;5.30;99.90
20973;DHT22;10645;52.370;13.314;2022-10-26T01:27:49;5.10;99.90
20973;DHT22;10645;52.370;13.314;2022-10-26T01:33:18;5.20;99.90
20973;DHT22;10645;52.370;13.314;2022-10-26T01:35:49;5.10;99.90
20973;DHT22;10645;52.370;13.314;2022-10-26T01:38:25;5.10;99.90
20973;DHT22;10645;52.370;13.314;2022-10-26T01:41:10;5.10;99.90
20973;DHT22;10645;52.370;13.314;2022-10-26T01:43:41;5.10;99.90
20973;DHT22;10645;52.370;13.314;2022-10-26T01:46:08;5.00;99.90
20973;DHT22;10645;52.370;13.314;2022-10-26T01:48:36;4.90;99.90
20973;DHT22;10645;52.370;13.314;2022-10-26T01:51:03;4.90;99.90
20973;DHT22;10645;52.370;13.314;2022-10-26T01:53:30;4.90;99.90
20973;DHT22;10645;52.370;13.314;2022-10-26T01:55:56;4.90;99.90
20973;DHT22;10645;52.370;13.314;2022-10-26T01:58:55;5.00;99.90
20973;DHT22;10645;52.370;13.314;2022-10-26T02:07:01;5.00;99.90
20973;DHT22;10645;52.370;13.314;2022-10-26T02:15:06;4.90;99.90
20973;DHT22;10645;52.370;13.314;2022-10-26T02:20:41;4.80;99.90
20973;DHT22;10645;52.370;13.314;2022-10-26T02:23:10;4.90;99.90
20973;DHT22;10645;52.370;13.314;2022-10-26T02:25:45;4.90;99.90
20973;DHT22;10645;52.370;13.314;2022-10-26T02:28:16;4.90;99.90
20973;DHT22;10645;52.370;13.314;2022-10-26T02:30:45;5.00;99.90
20973;DHT22;10645;52.370;13.314;2022-10-26T02:33:14;4.90;99.90
20973;DHT22;10645;52.370;13.314;2022-10-26T02:35:42;4.90;99.90
20973;DHT22;10645;52.370;13.314;2022-10-26T02:38:14;4.90;99.90
20973;DHT22;10645;52.370;13.314;2022-10-26T02:40:44;4.80;99.90
20973;DHT22;10645;52.370;13.314;2022-10-26T02:43:13;4.80;99.90
20973;DHT22;10645;52.370;13.314;2022-10-26T02:45:46;4.80;99.90
20973;DHT22;10645;52.370;13.314;2022-10-26T02:48:13;4.80;99.90
20973;DHT22;10645;52.370;13.314;2022-10-26T02:50:51;4.90;99.90
20973;DHT22;10645;52.370;13.314;2022-10-26T02:53:34;4.80;99.90
20973;DHT22;10645;52.370;13.314;2022-10-26T02:56:16;4.80;99.90
20973;DHT22;10645;52.370;13.314;2022-10-26T02:58:47;4.80;99.90
20973;DHT22;10645;52.370;13.314;2022-10-26T03:01:15;4.90;99.90
20973;DHT22;10645;52.370;13.314;2022-10-26T03:03:41;4.90;99.90
20973;DHT22;10645;52.370;13.314;2022-10-26T03:06:07;4.90;99.90
20973;DHT22;10645;52.370;13.314;2022-10-26T03:08:33;5.00;99.90
20973;DHT22;10645;52.370;13.314;2022-10-26T03:10:59;5.00;99.90
20973;DHT22;10645;52.370;13.314;2022-10-26T03:13:25;5.00;99.90
20973;DHT22;10645;52.370;13.314;2022-10-26T03:15:54;5.00;99.90
20973;DHT22;10645;52.370;13.314;2022-10-26T03:18:21;5.00;99.90
20973;DHT22;10645;52.370;13.314;2022-10-26T03:20:47;4.90;99.90
20973;DHT22;10645;52.370;13.314;2022-10-26T03:23:13;4.90;99.90
20973;DHT22;10645;52.370;13.314;2022-10-26T03:25:39;4.90;99.90
20973;DHT22;10645;52.370;13.314;2022-10-26T03:28:06;4.90;99.90
20973;DHT22;10645;52.370;13.314;2022-10-26T03:30:32;4.90;99.90
20973;DHT22;10645;52.370;13.314;2022-10-26T03:32:58;4.90;99.90
20973;DHT22;10645;52.370;13.314;2022-10-26T03:35:24;4.90;99.90
20973;DHT22;10645;52.370;13.314;2022-10-26T03:37:50;4.90;99.90
20973;DHT22;10645;52.370;13.314;2022-10-26T03:40:16;4.90;99.90
20973;DHT22;10645;52.370;13.314;2022-10-26T03:42:42;4.90;99.90
20973;DHT22;10645;52.370;13.314;2022-10-26T03:45:09;4.90;99.90
20973;DHT22;10645;52.370;13.314;2022-10-26T03:47:45;4.90;99.90
20973;DHT22;10645;52.370;13.314;2022-10-26T03:50:12;5.00;99.90
20973;DHT22;10645;52.370;13.314;2022-10-26T03:52:39;5.10;99.90
20973;DHT22;10645;52.370;13.314;2022-10-26T03:55:06;5.20;99.90
20973;DHT22;10645;52.370;13.314;2022-10-26T03:57:32;5.40;99.90
20973;DHT22;10645;52.370;13.314;2022-10-26T03:59:58;5.50;99.90
20973;DHT22;10645;52.370;13.314;2022-10-26T04:02:24;5.60;99.90
20973;DHT22;10645;52.370;13.314;2022-10-26T04:04:50;5.70;99.90
20973;DHT22;10645;52.370;13.314;2022-10-26T04:07:16;5.60;99.90
20973;DHT22;10645;52.370;13.314;2022-10-26T04:09:42;5.70;99.90
20973;DHT22;10645;52.370;13.314;2022-10-26T04:12:08;5.60;99.90
20973;DHT22;10645;52.370;13.314;2022-10-26T04:14:34;5.60;99.90
20973;DHT22;10645;52.370;13.314;2022-10-26T04:17:00;5.60;99.90
20973;DHT22;10645;52.370;13.314;2022-10-26T04:19:26;5.50;99.90
20973;DHT22;10645;52.370;13.314;2022-10-26T04:21:52;5.40;99.90
20973;DHT22;10645;52.370;13.314;2022-10-26T04:24:19;5.30;99.90
20973;DHT22;10645;52.370;13.314;2022-10-26T04:26:45;5.20;99.90
20973;DHT22;10645;52.370;13.314;2022-10-26T04:29:11;5.20;99.90
20973;DHT22;10645;52.370;13.314;2022-10-26T04:31:38;5.20;99.90
20973;DHT22;10645;52.370;13.314;2022-10-26T04:34:04;5.20;99.90
20973;DHT22;10645;52.370;13.314;2022-10-26T04:36:30;5.10;99.90
20973;DHT22;10645;52.370;13.314;2022-10-26T04:38:56;5.10;99.90
20973;DHT22;10645;52.370;13.314;2022-10-26T04:41:23;5.00;99.90
20973;DHT22;10645;52.370;13.314;2022-10-26T04:43:49;5.00;99.90
20973;DHT22;10645;52.370;13.314;2022-10-26T04:46:15;5.00;99.90
20973;DHT22;10645;52.370;13.314;2022-10-26T04:48:41;4.90;99.90
20973;DHT22;10645;52.370;13.314;2022-10-26T04:51:07;4.80;99.90
20973;DHT22;10645;52.370;13.314;2022-10-26T04:53:33;4.70;99.90
20973;DHT22;10645;52.370;13.314;2022-10-26T04:56:00;4.70;99.90
20973;DHT22;10645;52.370;13.314;2022-10-26T04:58:29;4.70;99.90
20973;DHT22;10645;52.370;13.314;2022-10-26T05:00:55;4.70;99.90
20973;DHT22;10645;52.370;13.314;2022-10-26T05:03:22;4.70;99.90
20973;DHT22;10645;52.370;13.314;2022-10-26T05:05:48;4.70;99.90
20973;DHT22;10645;52.370;13.314;2022-10-26T05:08:15;4.70;99.90
20973;DHT22;10645;52.370;13.314;2022-10-26T05:10:41;4.70;99.90
20973;DHT22;10645;52.370;13.314;2022-10-26T05:13:08;4.70;99.90
20973;DHT22;10645;52.370;13.314;2022-10-26T05:15:35;4.70;99.90
20973;DHT22;10645;52.370;13.314;2022-10-26T05:18:03;4.70;99.90
20973;DHT22;10645;52.370;13.314;2022-10-26T05:20:32;4.60;99.90
20973;DHT22;10645;52.370;13.314;2022-10-26T05:23:00;4.70;99.90
20973;DHT22;10645;52.370;13.314;2022-10-26T05:25:29;4.60;99.90
20973;DHT22;10645;52.370;13.314;2022-10-26T05:28:03;4.60;99.90
20973;DHT22;10645;52.370;13.314;2022-10-26T05:30:30;4.60;99.90
20973;DHT22;10645;52.370;13.314;2022-10-26T05:32:57;4.60;99.90
20973;DHT22;10645;52.370;13.314;2022-10-26T05:35:25;4.70;99.90
20973;DHT22;10645;52.370;13.314;2022-10-26T05:37:52;4.60;99.90
20973;DHT22;10645;52.370;13.314;2022-10-26T05:40:18;4.60;99.90
20973;DHT22;10645;52.370;13.314;2022-10-26T05:42:45;4.60;99.90
20973;DHT22;10645;52.370;13.314;2022-10-26T05:45:11;4.50;99.90
20973;DHT22;10645;52.370;13.314;2022-10-26T05:47:41;4.50;99.90
20973;DHT22;10645;52.370;13.314;2022-10-26T05:50:08;4.50;99.90
20973;DHT22;10645;52.370;13.314;2022-10-26T05:52:45;4.60;99.90
20973;DHT22;10645;52.370;13.314;2022-10-26T05:55:14;4.70;99.90
20973;DHT22;10645;52.370;13.314;2022-10-26T05:57:41;4.70;99.90
20973;DHT22;10645;52.370;13.314;2022-10-26T06:00:11;4.80;99.90
20973;DHT22;10645;52.370;13.314;2022-10-26T06:05:39;4.70;99.90
20973;DHT22;10645;52.370;13.314;2022-10-26T06:08:08;4.70;99.90
20973;DHT22;10645;52.370;13.314;2022-10-26T06:10:35;4.70;99.90
20973;DHT22;10645;52.370;13.314;2022-10-26T06:13:02;4.80;99.90
20973;DHT22;10645;52.370;13.314;2022-10-26T06:15:30;4.80;99.90
20973;DHT22;10645;52.370;13.314;2022-10-26T06:31:12;5.00;99.90
20973;DHT22;10645;52.370;13.314;2022-10-26T06:33:39;5.10;99.90
20973;DHT22;10645;52.370;13.314;2022-10-26T06:38:33;5.20;99.90
20973;DHT22;10645;52.370;13.314;2022-10-26T06:41:00;5.20;99.90
20973;DHT22;10645;52.370;13.314;2022-10-26T06:43:30;5.20;99.90
20973;DHT22;10645;52.370;13.314;2022-10-26T06:48:55;5.40;99.90
20973;DHT22;10645;52.370;13.314;2022-10-26T06:51:26;5.50;99.90
20973;DHT22;10645;52.370;13.314;2022-10-26T06:54:07;5.60;99.90
20973;DHT22;10645;52.370;13.314;2022-10-26T06:56:38;5.70;99.90
20973;DHT22;10645;52.370;13.314;2022-10-26T06:59:08;5.80;99.90
20973;DHT22;10645;52.370;13.314;2022-10-26T07:01:38;5.90;99.90
20973;DHT22;10645;52.370;13.314;2022-10-26T07:04:04;6.00;99.90
20973;DHT22;10645;52.370;13.314;2022-10-26T07:06:31;6.10;99.90
20973;DHT22;10645;52.370;13.314;2022-10-26T07:08:57;6.20;99.90
20973;DHT22;10645;52.370;13.314;2022-10-26T07:11:23;6.40;99.90
20973;DHT22;10645;52.370;13.314;2022-10-26T07:13:49;6.60;99.90
20973;DHT22;10645;52.370;13.314;2022-10-26T07:16:16;6.70;99.90
20973;DHT22;10645;52.370;13.314;2022-10-26T07:18:42;6.90;99.90
20973;DHT22;10645;52.370;13.314;2022-10-26T07:21:08;7.10;99.90
20973;DHT22;10645;52.370;13.314;2022-10-26T07:23:35;7.20;99.90
20973;DHT22;10645;52.370;13.314;2022-10-26T07:26:01;7.40;99.90
20973;DHT22;10645;52.370;13.314;2022-10-26T07:28:27;7.60;99.90
20973;DHT22;10645;52.370;13.314;2022-10-26T07:30:53;7.80;99.90
20973;DHT22;10645;52.370;13.314;2022-10-26T07:33:19;7.90;99.90
20973;DHT22;10645;52.370;13.314;2022-10-26T07:35:45;8.00;99.90
20973;DHT22;10645;52.370;13.314;2022-10-26T07:38:12;8.20;99.90
20973;DHT22;10645;52.370;13.314;2022-10-26T07:40:38;8.30;99.90
20973;DHT22;10645;52.370;13.314;2022-10-26T07:43:04;8.40;99.90
20973;DHT22;10645;52.370;13.314;2022-10-26T07:45:30;8.50;99.90
20973;DHT22;10645;52.370;13.314;2022-10-26T07:47:57;8.70;99.90
20973;DHT22;10645;52.370;13.314;2022-10-26T07:50:23;8.80;99.90
20973;DHT22;10645;52.370;13.314;2022-10-26T07:52:49;9.00;99.90
20973;DHT22;10645;52.370;13.314;2022-10-26T07:55:15;9.10;99.90
20973;DHT22;10645;52.370;13.314;2022-10-26T07:57:41;9.20;99.90
20973;DHT22;10645;52.370;13.314;2022-10-26T08:00:08;9.30;99.90
20973;DHT22;10645;52.370;13.314;2022-10-26T08:02:35;9.40;99.90
20973;DHT22;10645;52.370;13.314;2022-10-26T08:05:01;9.60;99.90
20973;DHT22;10645;52.370;13.314;2022-10-26T08:07:27;9.70;99.90
20973;DHT22;10645;52.370;13.314;2022-10-26T08:09:53;9.80;99.90
20973;DHT22;10645;52.370;13.314;2022-10-26T08:12:20;10.00;99.90
20973;DHT22;10645;52.370;13.314;2022-10-26T08:14:46;10.00;99.90
20973;DHT22;10645;52.370;13.314;2022-10-26T08:17:12;9.90;99.90
20973;DHT22;10645;52.370;13.314;2022-10-26T08:19:38;9.90;99.90
20973;DHT22;10645;52.370;13.314;2022-10-26T08:22:04;10.00;99.90
20973;DHT22;10645;52.370;13.314;2022-10-26T08:24:31;10.10;99.90
20973;DHT22;10645;52.370;13.314;2022-10-26T08:26:57;10.20;99.90
20973;DHT22;10645;52.370;13.314;2022-10-26T08:29:23;10.40;99.90
20973;DHT22;10645;52.370;13.314;2022-10-26T08:31:49;10.30;99.90
20973;DHT22;10645;52.370;13.314;2022-10-26T08:34:15;10.40;99.90
20973;DHT22;10645;52.370;13.314;2022-10-26T08:36:41;10.50;99.90
20973;DHT22;10645;52.370;13.314;2022-10-26T08:39:07;10.60;99.90
20973;DHT22;10645;52.370;13.314;2022-10-26T08:41:44;10.70;99.90
20973;DHT22;10645;52.370;13.314;2022-10-26T08:44:39;10.80;99.90
20973;DHT22;10645;52.370;13.314;2022-10-26T08:47:20;11.00;99.90
20973;DHT22;10645;52.370;13.314;2022-10-26T08:52:37;11.30;99.90
20973;DHT22;10645;52.370;13.314;2022-10-26T08:55:13;11.40;99.90
20973;DHT22;10645;52.370;13.314;2022-10-26T08:57:41;11.40;99.90
20973;DHT22;10645;52.370;13.314;2022-10-26T09:00:14;11.50;99.90
20973;DHT22;10645;52.370;13.314;2022-10-26T09:02:40;11.60;99.90
20973;DHT22;10645;52.370;13.314;2022-10-26T09:05:21;11.70;99.90
20973;DHT22;10645;52.370;13.314;2022-10-26T09:08:27;11.80;99.90
20973;DHT22;10645;52.370;13.314;2022-10-26T09:14:10;12.00;99.90
20973;DHT22;10645;52.370;13.314;2022-10-26T09:22:23;12.30;99.90
20973;DHT22;10645;52.370;13.314;2022-10-26T09:24:54;12.40;99.90
20973;DHT22;10645;52.370;13.314;2022-10-26T09:27:26;12.50;99.90
20973;DHT22;10645;52.370;13.314;2022-10-26T09:29:55;12.60;99.90
20973;DHT22;10645;52.370;13.314;2022-10-26T09:32:26;12.70;99.90
20973;DHT22;10645;52.370;13.314;2022-10-26T09:35:03;12.80;99.90
20973;DHT22;10645;52.370;13.314;2022-10-26T09:37:39;12.90;99.90
20973;DHT22;10645;52.370;13.314;2022-10-26T09:40:22;13.00;99.90
20973;DHT22;10645;52.370;13.314;2022-10-26T09:43:10;13.10;99.90
20973;DHT22;10645;52.370;13.314;2022-10-26T09:45:55;13.20;99.90
20973;DHT22;10645;52.370;13.314;2022-10-26T09:48:47;13.30;99.90
20973;DHT22;10645;52.370;13.314;2022-10-26T09:51:15;13.40;99.90
20973;DHT22;10645;52.370;13.314;2022-10-26T09:53:42;13.50;99.90
20973;DHT22;10645;52.370;13.314;2022-10-26T09:56:13;13.50;99.90
20973;DHT22;10645;52.370;13.314;2022-10-26T09:59:00;13.70;99.90
20973;DHT22;10645;52.370;13.314;2022-10-26T10:01:31;13.80;99.90
20973;DHT22;10645;52.370;13.314;2022-10-26T10:06:39;14.10;99.90
20973;DHT22;10645;52.370;13.314;2022-10-26T10:09:16;14.20;99.90
20973;DHT22;10645;52.370;13.314;2022-10-26T10:11:54;14.30;99.90
20973;DHT22;10645;52.370;13.314;2022-10-26T10:14:26;14.40;99.90
20973;DHT22;10645;52.370;13.314;2022-10-26T10:16:55;14.50;99.90
20973;DHT22;10645;52.370;13.314;2022-10-26T10:21:58;14.70;99.90
20973;DHT22;10645;52.370;13.314;2022-10-26T10:24:32;14.70;99.90
20973;DHT22;10645;52.370;13.314;2022-10-26T10:29:29;14.80;99.90
20973;DHT22;10645;52.370;13.314;2022-10-26T10:31:58;14.80;99.90
20973;DHT22;10645;52.370;13.314;2022-10-26T10:34:25;15.00;99.90
20973;DHT22;10645;52.370;13.314;2022-10-26T10:36:51;15.00;99.90
20973;DHT22;10645;52.370;13.314;2022-10-26T10:39:34;15.00;99.90
20973;DHT22;10645;52.370;13.314;2022-10-26T10:42:03;15.20;99.90
20973;DHT22;10645;52.370;13.314;2022-10-26T10:44:31;15.20;99.90
20973;DHT22;10645;52.370;13.314;2022-10-26T10:47:03;15.20;99.90
20973;DHT22;10645;52.370;13.314;2022-10-26T10:49:30;15.20;99.90
20973;DHT22;10645;52.370;13.314;2022-10-26T10:51:57;15.30;99.90
20973;DHT22;10645;52.370;13.314;2022-10-26T10:54:31;15.30;99.90
20973;DHT22;10645;52.370;13.314;2022-10-26T11:02:47;15.50;99.90
20973;DHT22;10645;52.370;13.314;2022-10-26T11:05:39;15.50;99.90
20973;DHT22;10645;52.370;13.314;2022-10-26T11:08:07;15.70;99.90
20973;DHT22;10645;52.370;13.314;2022-10-26T11:10:44;15.80;99.90
20973;DHT22;10645;52.370;13.314;2022-10-26T11:13:20;15.90;99.90
20973;DHT22;10645;52.370;13.314;2022-10-26T11:15:50;16.00;99.90
20973;DHT22;10645;52.370;13.314;2022-10-26T11:19:29;16.20;99.90
20973;DHT22;10645;52.370;13.314;2022-10-26T11:21:33;16.30;99.90
20973;DHT22;10645;52.370;13.314;2022-10-26T11:24:13;16.50;99.90
20973;DHT22;10645;52.370;13.314;2022-10-26T11:26:59;16.50;99.90
20973;DHT22;10645;52.370;13.314;2022-10-26T11:29:42;16.60;99.90
20973;DHT22;10645;52.370;13.314;2022-10-26T11:32:29;16.70;99.90
20973;DHT22;10645;52.370;13.314;2022-10-26T11:35:04;16.80;99.90
20973;DHT22;10645;52.370;13.314;2022-10-26T11:37:45;16.80;99.90
20973;DHT22;10645;52.370;13.314;2022-10-26T11:45:44;17.10;99.90
20973;DHT22;10645;52.370;13.314;2022-10-26T11:48:32;17.20;99.90
20973;DHT22;10645;52.370;13.314;2022-10-26T11:51:01;17.30;99.90
20973;DHT22;10645;52.370;13.314;2022-10-26T11:53:36;17.40;99.90
20973;DHT22;10645;52.370;13.314;2022-10-26T11:56:11;17.40;99.90
20973;DHT22;10645;52.370;13.314;2022-10-26T11:58:38;17.50;99.90
20973;DHT22;10645;52.370;13.314;2022-10-26T12:01:11;17.40;99.90
20973;DHT22;10645;52.370;13.314;2022-10-26T12:03:43;17.40;99.90
20973;DHT22;10645;52.370;13.314;2022-10-26T12:06:13;17.40;99.90
20973;DHT22;10645;52.370;13.314;2022-10-26T12:08:44;17.40;99.90
20973;DHT22;10645;52.370;13.314;2022-10-26T12:19:23;17.50;99.90
20973;DHT22;10645;52.370;13.314;2022-10-26T12:21:51;17.60;99.90
20973;DHT22;10645;52.370;13.314;2022-10-26T12:26:56;17.60;99.90
20973;DHT22;10645;52.370;13.314;2022-10-26T12:29:35;17.60;99.90
20973;DHT22;10645;52.370;13.314;2022-10-26T12:35:35;17.60;99.90
20973;DHT22;10645;52.370;13.314;2022-10-26T12:41:11;17.70;99.90
20973;DHT22;10645;52.370;13.314;2022-10-26T12:43:39;17.70;99.90
20973;DHT22;10645;52.370;13.314;2022-10-26T12:46:36;17.70;99.90
20973;DHT22;10645;52.370;13.314;2022-10-26T12:49:02;17.70;99.90
20973;DHT22;10645;52.370;13.314;2022-10-26T12:56:41;17.80;99.90
20973;DHT22;10645;52.370;13.314;2022-10-26T12:59:47;17.70;99.90
20973;DHT22;10645;52.370;13.314;2022-10-26T13:08:03;17.60;99.90
20973;DHT22;10645;52.370;13.314;2022-10-26T13:10:31;17.60;99.90
20973;DHT22;10645;52.370;13.314;2022-10-26T13:13:02;17.50;99.90
20973;DHT22;10645;52.370;13.314;2022-10-26T13:15:36;17.50;99.90
20973;DHT22;10645;52.370;13.314;2022-10-26T13:18:07;17.40;99.90
20973;DHT22;10645;52.370;13.314;2022-10-26T13:20:35;17.40;99.90
20973;DHT22;10645;52.370;13.314;2022-10-26T13:23:14;17.40;99.90
20973;DHT22;10645;52.370;13.314;2022-10-26T13:25:41;17.40;99.90
20973;DHT22;10645;52.370;13.314;2022-10-26T13:28:30;17.30;99.90
20973;DHT22;10645;52.370;13.314;2022-10-26T13:30:57;17.30;99.90
20973;DHT22;10645;52.370;13.314;2022-10-26T13:33:27;17.30;99.90
20973;DHT22;10645;52.370;13.314;2022-10-26T13:35:57;17.30;99.90
20973;DHT22;10645;52.370;13.314;2022-10-26T13:38:28;17.30;99.90
20973;DHT22;10645;52.370;13.314;2022-10-26T13:41:04;17.30;99.90
20973;DHT22;10645;52.370;13.314;2022-10-26T13:43:32;17.20;99.90
20973;DHT22;10645;52.370;13.314;2022-10-26T13:45:59;17.20;99.90
20973;DHT22;10645;52.370;13.314;2022-10-26T13:48:39;17.20;99.90
20973;DHT22;10645;52.370;13.314;2022-10-26T13:51:19;17.10;99.90
20973;DHT22;10645;52.370;13.314;2022-10-26T13:53:59;17.10;99.90
20973;DHT22;10645;52.370;13.314;2022-10-26T13:56:36;17.00;99.90
20973;DHT22;10645;52.370;13.314;2022-10-26T13:59:08;17.00;99.90
20973;DHT22;10645;52.370;13.314;2022-10-26T14:01:35;17.00;99.90
20973;DHT22;10645;52.370;13.314;2022-10-26T14:04:17;17.00;99.90
20973;DHT22;10645;52.370;13.314;2022-10-26T14:06:50;16.90;99.90
20973;DHT22;10645;52.370;13.314;2022-10-26T14:09:18;16.90;99.90
20973;DHT22;10645;52.370;13.314;2022-10-26T14:11:56;16.90;99.90
20973;DHT22;10645;52.370;13.314;2022-10-26T14:14:31;16.80;99.90
20973;DHT22;10645;52.370;13.314;2022-10-26T14:16:58;16.80;99.90
20973;DHT22;10645;52.370;13.314;2022-10-26T14:19:26;16.70;99.90
20973;DHT22;10645;52.370;13.314;2022-10-26T14:21:53;16.70;99.90
20973;DHT22;10645;52.370;13.314;2022-10-26T14:24:22;16.70;99.90
20973;DHT22;10645;52.370;13.314;2022-10-26T14:26:48;16.60;99.90
20973;DHT22;10645;52.370;13.314;2022-10-26T14:29:17;16.50;99.90
20973;DHT22;10645;52.370;13.314;2022-10-26T14:31:45;16.40;99.90
20973;DHT22;10645;52.370;13.314;2022-10-26T14:34:12;16.40;99.90
20973;DHT22;10645;52.370;13.314;2022-10-26T14:37:00;16.40;99.90
20973;DHT22;10645;52.370;13.314;2022-10-26T14:39:40;16.30;99.90
20973;DHT22;10645;52.370;13.314;2022-10-26T14:42:30;16.30;99.90
20973;DHT22;10645;52.370;13.314;2022-10-26T14:44:57;16.20;99.90
20973;DHT22;10645;52.370;13.314;2022-10-26T14:47:29;16.10;99.90
20973;DHT22;10645;52.370;13.314;2022-10-26T14:49:57;16.00;99.90
20973;DHT22;10645;52.370;13.314;2022-10-26T14:52:26;16.00;99.90
20973;DHT22;10645;52.370;13.314;2022-10-26T14:55:20;15.90;99.90
20973;DHT22;10645;52.370;13.314;2022-10-26T14:57:48;15.90;99.90
20973;DHT22;10645;52.370;13.314;2022-10-26T15:00:21;15.90;99.90
20973;DHT22;10645;52.370;13.314;2022-10-26T15:02:49;15.90;99.90
20973;DHT22;10645;52.370;13.314;2022-10-26T15:05:30;15.80;99.90
20973;DHT22;10645;52.370;13.314;2022-10-26T15:07:59;15.80;99.90
20973;DHT22;10645;52.370;13.314;2022-10-26T15:13:23;15.90;99.90
20973;DHT22;10645;52.370;13.314;2022-10-26T15:15:53;15.80;99.90
20973;DHT22;10645;52.370;13.314;2022-10-26T15:18:24;15.80;99.90
20973;DHT22;10645;52.370;13.314;2022-10-26T15:20:52;15.70;99.90
20973;DHT22;10645;52.370;13.314;2022-10-26T15:23:20;15.50;99.90
20973;DHT22;10645;52.370;13.314;2022-10-26T15:25:54;15.50;99.90
20973;DHT22;10645;52.370;13.314;2022-10-26T15:33:41;15.20;99.90
20973;DHT22;10645;52.370;13.314;2022-10-26T15:36:19;15.10;99.90
20973;DHT22;10645;52.370;13.314;2022-10-26T15:38:46;15.10;99.90
20973;DHT22;10645;52.370;13.314;2022-10-26T15:41:30;15.00;99.90
20973;DHT22;10645;52.370;13.314;2022-10-26T15:43:58;14.90;99.90
20973;DHT22;10645;52.370;13.314;2022-10-26T15:46:30;14.70;99.90
20973;DHT22;10645;52.370;13.314;2022-10-26T15:48:58;14.60;99.90
20973;DHT22;10645;52.370;13.314;2022-10-26T15:51:25;14.40;99.90
20973;DHT22;10645;52.370;13.314;2022-10-26T15:53:51;14.30;99.90
20973;DHT22;10645;52.370;13.314;2022-10-26T15:56:19;14.10;99.90
20973;DHT22;10645;52.370;13.314;2022-10-26T15:58:46;13.90;99.90
20973;DHT22;10645;52.370;13.314;2022-10-26T16:01:15;13.70;99.90
20973;DHT22;10645;52.370;13.314;2022-10-26T16:03:42;13.60;99.90
20973;DHT22;10645;52.370;13.314;2022-10-26T16:06:14;13.50;99.90
20973;DHT22;10645;52.370;13.314;2022-10-26T16:08:44;13.30;99.90
20973;DHT22;10645;52.370;13.314;2022-10-26T16:11:12;13.20;99.90
20973;DHT22;10645;52.370;13.314;2022-10-26T16:13:38;13.10;99.90
20973;DHT22;10645;52.370;13.314;2022-10-26T16:16:12;13.00;99.90
20973;DHT22;10645;52.370;13.314;2022-10-26T16:18:39;12.90;99.90
20973;DHT22;10645;52.370;13.314;2022-10-26T16:21:05;12.80;99.90
20973;DHT22;10645;52.370;13.314;2022-10-26T16:23:31;12.70;99.90
20973;DHT22;10645;52.370;13.314;2022-10-26T16:25:57;12.70;99.90
20973;DHT22;10645;52.370;13.314;2022-10-26T16:28:23;12.70;99.90
20973;DHT22;10645;52.370;13.314;2022-10-26T16:30:49;12.70;99.90
20973;DHT22;10645;52.370;13.314;2022-10-26T16:33:15;12.70;99.90
20973;DHT22;10645;52.370;13.314;2022-10-26T16:35:41;12.70;99.90
20973;DHT22;10645;52.370;13.314;2022-10-26T16:38:08;12.60;99.90
20973;DHT22;10645;52.370;13.314;2022-10-26T16:40:34;12.50;99.90
20973;DHT22;10645;52.370;13.314;2022-10-26T16:43:00;12.50;99.90
20973;DHT22;10645;52.370;13.314;2022-10-26T16:45:26;12.40;99.90
20973;DHT22;10645;52.370;13.314;2022-10-26T16:47:52;12.30;99.90
20973;DHT22;10645;52.370;13.314;2022-10-26T16:50:18;12.20;99.90
20973;DHT22;10645;52.370;13.314;2022-10-26T16:52:46;12.10;99.90
20973;DHT22;10645;52.370;13.314;2022-10-26T16:55:12;12.00;99.90
20973;DHT22;10645;52.370;13.314;2022-10-26T16:57:39;12.00;99.90
20973;DHT22;10645;52.370;13.314;2022-10-26T17:00:05;12.00;99.90
20973;DHT22;10645;52.370;13.314;2022-10-26T17:02:32;12.00;99.90
20973;DHT22;10645;52.370;13.314;2022-10-26T17:04:58;12.00;99.90
20973;DHT22;10645;52.370;13.314;2022-10-26T17:07:24;12.00;99.90
20973;DHT22;10645;52.370;13.314;2022-10-26T17:09:50;12.00;99.90
20973;DHT22;10645;52.370;13.314;2022-10-26T17:12:16;12.00;99.90
20973;DHT22;10645;52.370;13.314;2022-10-26T17:14:42;11.90;99.90
20973;DHT22;10645;52.370;13.314;2022-10-26T17:17:08;11.90;99.90
20973;DHT22;10645;52.370;13.314;2022-10-26T17:19:34;12.00;99.90
20973;DHT22;10645;52.370;13.314;2022-10-26T17:22:00;11.90;99.90
20973;DHT22;10645;52.370;13.314;2022-10-26T17:24:26;11.90;99.90
20973;DHT22;10645;52.370;13.314;2022-10-26T17:26:52;11.90;99.90
20973;DHT22;10645;52.370;13.314;2022-10-26T17:29:18;11.90;99.90
20973;DHT22;10645;52.370;13.314;2022-10-26T17:31:45;11.90;99.90
20973;DHT22;10645;52.370;13.314;2022-10-26T17:34:11;12.00;99.90